Terminal Aerodrome Forecast
Issued by NWS Norman, OK

Home | Current Version | Previous Version | Text Only | Print | Product List | Glossary On
Versions: 1 2 3 4 5 6 7 8 9 10 11 12 13 14 15 16 17 18 19 20 21 22 23 24 25 26 27 28 29 30 31 32 33
000
FTUS44 KOUN 222326
TAFOKC
TAF
KOKC 222326Z 2300/2324 17014G20KT P6SM SCT008 OVC060
      TEMPO 2303/2306 4SM BR OVC008
     FM230600 17012KT 2SM BR OVC006
     FM231400 18012KT 5SM BR OVC008
     FM231800 23014KT P6SM BKN015
     FM232000 34021G30KT P6SM OVC030=

USA.gov is the U.S. government's official web portal to all federal, state and local government web resources and services.